createdAt,value
2023-03-16T00:02:31.979Z,2.37
2023-03-16T00:05:41.760Z,2.29
2023-03-16T00:08:47.665Z,2.21
2023-03-16T00:11:54.216Z,2.23
2023-03-16T00:15:02.067Z,2.18
2023-03-16T00:18:08.832Z,2.10
2023-03-16T00:21:18.518Z,2.03
2023-03-16T00:24:25.274Z,1.97
2023-03-16T00:27:31.130Z,1.90
2023-03-16T00:30:37.933Z,1.80
2023-03-16T00:33:45.650Z,1.84
2023-03-16T00:36:55.355Z,1.91
2023-03-16T00:40:08.056Z,1.99
2023-03-16T00:43:18.969Z,2.11
2023-03-16T00:46:28.041Z,2.20
2023-03-16T00:49:35.654Z,2.19
2023-03-16T00:52:45.096Z,2.21
2023-03-16T00:55:53.564Z,2.17
2023-03-16T00:59:00.685Z,2.14
2023-03-16T01:02:09.718Z,2.08
2023-03-16T01:05:16.711Z,2.05
2023-03-16T01:08:28.091Z,2.12
2023-03-16T01:11:35.555Z,2.14
2023-03-16T01:14:45.936Z,2.14
2023-03-16T01:17:51.948Z,2.21
2023-03-16T01:20:58.692Z,2.24
2023-03-16T01:24:07.649Z,2.27
2023-03-16T01:27:15.319Z,2.23
2023-03-16T01:30:24.165Z,2.17
2023-03-16T01:33:32.223Z,2.13
2023-03-16T01:36:38.097Z,2.17
2023-03-16T01:39:49.246Z,2.17
2023-03-16T01:43:07.218Z,2.12
2023-03-16T01:46:24.105Z,2.16
2023-03-16T01:49:39.512Z,2.13
2023-03-16T01:52:46.368Z,2.06
2023-03-16T01:55:56.572Z,1.99
2023-03-16T01:59:13.994Z,1.94
2023-03-16T02:02:26.690Z,1.96
2023-03-16T02:05:44.678Z,2.01
2023-03-16T02:08:57.065Z,1.99
2023-03-16T02:12:09.682Z,2.02
2023-03-16T02:15:19.670Z,2.06
2023-03-16T02:18:26.705Z,2.10
2023-03-16T02:21:49.923Z,2.11
2023-03-16T02:24:57.981Z,2.03
2023-03-16T02:28:23.646Z,1.90
2023-03-16T02:31:34.346Z,1.78
2023-03-16T02:34:42.104Z,1.64
2023-03-16T02:37:49.051Z,1.59
2023-03-16T02:41:04.277Z,1.57
2023-03-16T02:44:20.625Z,1.51
2023-03-16T02:47:38.696Z,1.48
2023-03-16T02:50:50.343Z,1.48
2023-03-16T02:53:56.155Z,1.47
2023-03-16T02:57:06.575Z,1.50
2023-03-16T03:00:18.046Z,1.54
2023-03-16T03:03:34.464Z,1.48
2023-03-16T03:06:40.403Z,1.50
2023-03-16T03:09:47.280Z,1.46
2023-03-16T03:12:53.191Z,1.41
2023-03-16T03:16:03.418Z,1.30
2023-03-16T03:19:11.829Z,1.15
2023-03-16T03:22:19.771Z,1.04
2023-03-16T03:25:26.915Z,1.01
2023-03-16T03:28:34.839Z,0.98
2023-03-16T03:31:40.732Z,0.92
2023-03-16T03:34:50.023Z,0.85
2023-03-16T03:37:55.955Z,0.80
2023-03-16T03:41:02.807Z,0.72
2023-03-16T03:44:15.312Z,0.67
2023-03-16T03:47:22.626Z,0.67
2023-03-16T03:50:31.966Z,0.74
2023-03-16T03:54:07.532Z,0.72
2023-03-16T03:57:24.372Z,0.67
2023-03-16T04:00:31.239Z,0.63
2023-03-16T04:03:37.883Z,0.64
2023-03-16T04:06:48.219Z,0.59
2023-03-16T04:09:54.854Z,0.65
2023-03-16T04:13:06.406Z,0.67
2023-03-16T04:16:16.533Z,0.64
2023-03-16T04:19:26.046Z,0.62
2023-03-16T04:22:37.369Z,0.63
2023-03-16T04:25:43.357Z,0.64
2023-03-16T04:28:50.584Z,0.65
2023-03-16T04:31:58.573Z,0.64
2023-03-16T04:35:09.409Z,0.67
2023-03-16T04:38:29.527Z,0.70
2023-03-16T04:41:45.850Z,0.67
2023-03-16T04:44:56.967Z,0.74
2023-03-16T04:48:06.002Z,0.77
2023-03-16T04:51:12.013Z,0.84
2023-03-16T04:54:27.201Z,0.93
2023-03-16T04:57:33.205Z,0.96
2023-03-16T05:00:40.896Z,1.01
2023-03-16T05:03:57.060Z,1.06
2023-03-16T05:07:05.186Z,1.07
2023-03-16T05:10:22.125Z,1.05
2023-03-16T05:13:28.916Z,1.01
2023-03-16T05:16:37.740Z,0.96
2023-03-16T05:19:45.457Z,0.95
2023-03-16T05:22:54.007Z,0.93
2023-03-16T05:26:13.403Z,0.85
2023-03-16T05:29:19.852Z,0.83
2023-03-16T05:32:26.608Z,0.84
2023-03-16T05:35:32.830Z,0.73
2023-03-16T05:38:45.808Z,0.66
2023-03-16T05:42:01.970Z,0.60
2023-03-16T05:45:19.070Z,0.64
2023-03-16T05:48:37.836Z,0.69
2023-03-16T05:51:45.943Z,0.68
2023-03-16T05:54:52.753Z,0.67
2023-03-16T05:58:03.802Z,0.68
2023-03-16T06:01:13.530Z,0.74
2023-03-16T06:04:23.437Z,0.78
2023-03-16T06:07:32.602Z,0.83
2023-03-16T06:10:39.956Z,0.85
2023-03-16T06:13:48.437Z,0.87
2023-03-16T06:16:55.791Z,0.93
2023-03-16T06:20:02.035Z,1.00
2023-03-16T06:23:09.265Z,1.04
2023-03-16T06:26:16.052Z,1.10
2023-03-16T06:29:27.739Z,1.10
2023-03-16T06:32:34.838Z,1.30
2023-03-16T06:35:41.888Z,1.45
2023-03-16T06:38:56.053Z,1.53
2023-03-16T06:42:06.790Z,2.10
2023-03-16T06:45:16.817Z,2.46
2023-03-16T06:48:23.787Z,3.07
2023-03-16T06:51:30.300Z,3.75
2023-03-16T06:54:37.916Z,3.96
2023-03-16T06:57:45.295Z,4.44
2023-03-16T07:00:54.696Z,5.04
2023-03-16T07:04:01.979Z,5.48
2023-03-16T07:07:12.095Z,5.27
2023-03-16T07:10:21.074Z,4.98
2023-03-16T07:13:27.594Z,4.69
2023-03-16T07:16:36.564Z,4.42
2023-03-16T07:19:46.420Z,4.13
2023-03-16T07:22:53.255Z,3.84
2023-03-16T07:26:01.217Z,3.73
2023-03-16T07:29:07.868Z,3.58
2023-03-16T07:32:17.445Z,3.71
2023-03-16T07:35:26.698Z,3.67
2023-03-16T07:38:35.627Z,3.78
2023-03-16T07:41:45.564Z,4.00
2023-03-16T07:44:57.792Z,4.41
2023-03-16T07:48:08.817Z,4.77
2023-03-16T07:51:25.387Z,5.10
2023-03-16T07:54:31.704Z,5.52
2023-03-16T07:57:39.383Z,5.78
2023-03-16T08:00:45.417Z,6.11
2023-03-16T08:03:54.649Z,6.32
2023-03-16T08:07:02.334Z,6.70
2023-03-16T08:10:23.237Z,6.85
2023-03-16T08:13:35.792Z,7.07
2023-03-16T08:16:43.802Z,7.32
2023-03-16T08:19:52.340Z,7.77
2023-03-16T08:23:00.575Z,7.93
2023-03-16T08:26:13.269Z,8.00
2023-03-16T08:29:19.898Z,8.41
2023-03-16T08:32:27.033Z,8.63
2023-03-16T08:35:36.409Z,8.59
2023-03-16T08:38:44.136Z,8.38
2023-03-16T08:41:52.361Z,8.33
2023-03-16T08:45:12.286Z,8.40
2023-03-16T08:48:22.307Z,8.40
2023-03-16T08:51:32.779Z,8.97
2023-03-16T08:54:39.451Z,9.45
2023-03-16T08:57:46.537Z,10.04
2023-03-16T09:00:53.099Z,10.67
2023-03-16T09:04:00.709Z,11.17
2023-03-16T09:07:10.564Z,11.78
2023-03-16T09:10:19.119Z,12.23
2023-03-16T09:13:26.138Z,12.65
2023-03-16T09:16:34.641Z,12.73
2023-03-16T09:19:52.188Z,12.99
2023-03-16T09:23:02.135Z,13.10
2023-03-16T09:26:10.731Z,13.63
2023-03-16T09:29:16.796Z,14.19
2023-03-16T09:32:26.482Z,14.50
2023-03-16T09:35:34.357Z,14.83
2023-03-16T09:38:45.298Z,15.02
2023-03-16T09:42:06.063Z,15.26
2023-03-16T09:45:29.271Z,15.78
2023-03-16T09:48:41.332Z,15.83
2023-03-16T09:52:00.726Z,15.15
2023-03-16T09:55:29.207Z,14.96
2023-03-16T09:58:36.815Z,14.92
2023-03-16T10:02:04.553Z,14.69
2023-03-16T10:05:17.264Z,14.97
2023-03-16T10:08:29.253Z,14.58
2023-03-16T10:11:47.129Z,13.77
2023-03-16T10:15:02.028Z,13.42
2023-03-16T10:18:19.283Z,13.34
2023-03-16T10:21:27.472Z,13.17
2023-03-16T10:24:57.017Z,12.69
2023-03-16T10:28:05.689Z,11.76
2023-03-16T10:31:18.258Z,10.98
2023-03-16T10:34:25.007Z,10.37
2023-03-16T10:37:34.282Z,9.80
2023-03-16T10:40:43.034Z,9.76
2023-03-16T10:43:57.524Z,10.29
2023-03-16T10:47:08.469Z,11.25
2023-03-16T10:50:21.220Z,11.78
2023-03-16T10:53:33.138Z,11.74
2023-03-16T10:56:40.482Z,11.35
2023-03-16T10:59:52.964Z,10.72
2023-03-16T11:03:02.662Z,10.54
2023-03-16T11:06:20.736Z,10.85
2023-03-16T11:09:34.235Z,12.02
2023-03-16T11:12:40.082Z,13.36
2023-03-16T11:15:58.798Z,13.82
2023-03-16T11:19:20.905Z,13.65
2023-03-16T11:22:30.361Z,13.13
2023-03-16T11:25:48.157Z,12.94
2023-03-16T11:29:09.480Z,13.76
2023-03-16T11:32:28.918Z,14.47
2023-03-16T11:35:59.187Z,14.40
2023-03-16T11:39:26.839Z,13.88
2023-03-16T11:42:41.777Z,13.42
2023-03-16T11:46:05.710Z,13.74
2023-03-16T11:49:58.365Z,14.87
2023-03-16T11:53:21.373Z,16.10
2023-03-16T11:56:37.701Z,17.17
2023-03-16T12:00:10.708Z,17.51
2023-03-16T12:04:02.399Z,17.20
2023-03-16T12:07:39.718Z,16.76
2023-03-16T12:10:58.750Z,15.74
2023-03-16T12:14:19.820Z,15.02
2023-03-16T12:17:35.289Z,14.28
2023-03-16T12:20:53.097Z,14.32
2023-03-16T12:24:07.335Z,14.23
2023-03-16T12:27:21.384Z,14.35
2023-03-16T12:30:58.292Z,14.31
2023-03-16T12:34:26.054Z,14.39
2023-03-16T12:37:48.216Z,14.44
2023-03-16T12:41:19.991Z,14.68
2023-03-16T12:44:40.028Z,14.64
2023-03-16T12:48:00.968Z,14.71
2023-03-16T12:51:13.439Z,14.78
2023-03-16T12:54:25.437Z,14.76
2023-03-16T12:57:37.597Z,14.30
2023-03-16T13:00:45.431Z,14.31
2023-03-16T13:04:04.222Z,14.71
2023-03-16T13:07:19.478Z,15.51
2023-03-16T13:10:27.005Z,16.35
2023-03-16T13:13:37.421Z,17.32
2023-03-16T13:16:45.671Z,18.03
2023-03-16T13:20:06.894Z,18.11
2023-03-16T13:23:30.316Z,17.45
2023-03-16T13:26:45.541Z,17.23
2023-03-16T13:30:05.474Z,17.16
2023-03-16T13:33:25.827Z,17.04
2023-03-16T13:36:35.095Z,17.01
2023-03-16T13:39:40.965Z,16.70
2023-03-16T13:42:53.312Z,16.06
2023-03-16T13:46:03.692Z,15.37
2023-03-16T13:49:10.382Z,15.01
2023-03-16T13:52:28.924Z,14.97
2023-03-16T13:55:41.750Z,15.32
2023-03-16T13:58:52.867Z,15.78
2023-03-16T14:02:04.604Z,16.09
2023-03-16T14:05:15.908Z,16.48
2023-03-16T14:08:26.964Z,16.74
2023-03-16T14:11:33.742Z,16.70
2023-03-16T14:14:43.901Z,16.49
2023-03-16T14:17:52.600Z,16.77
2023-03-16T14:21:00.339Z,16.76
2023-03-16T14:24:09.604Z,16.98
2023-03-16T14:27:33.003Z,17.41
2023-03-16T14:30:38.855Z,17.37
2023-03-16T14:33:48.331Z,17.13
2023-03-16T14:36:54.290Z,16.62
2023-03-16T14:40:09.186Z,16.31
2023-03-16T14:43:15.825Z,16.06
2023-03-16T14:46:33.629Z,15.90
2023-03-16T14:49:43.609Z,15.58
2023-03-16T14:52:51.989Z,15.09
2023-03-16T14:56:01.313Z,14.73
2023-03-16T14:59:09.169Z,14.37
2023-03-16T15:02:23.155Z,13.92
2023-03-16T15:05:40.740Z,13.40
2023-03-16T15:08:51.073Z,12.86
2023-03-16T15:11:58.325Z,12.51
2023-03-16T15:15:19.599Z,12.30
2023-03-16T15:18:26.180Z,12.04
2023-03-16T15:21:35.141Z,11.95
2023-03-16T15:24:42.652Z,11.96
2023-03-16T15:27:49.287Z,12.06
2023-03-16T15:30:59.726Z,12.18
2023-03-16T15:34:07.298Z,12.26
2023-03-16T15:37:26.324Z,12.25
2023-03-16T15:40:33.911Z,12.04
2023-03-16T15:43:40.610Z,11.82
2023-03-16T15:46:46.753Z,11.36
2023-03-16T15:49:53.301Z,11.34
2023-03-16T15:53:13.251Z,11.41
2023-03-16T15:56:30.096Z,11.38
2023-03-16T15:59:40.166Z,11.27
2023-03-16T16:02:46.748Z,11.00
2023-03-16T16:05:53.402Z,10.75
2023-03-16T16:09:02.910Z,10.66
2023-03-16T16:12:13.057Z,10.56
2023-03-16T16:15:25.808Z,10.45
2023-03-16T16:18:37.580Z,10.27
2023-03-16T16:21:44.909Z,10.14
2023-03-16T16:24:53.390Z,9.99
2023-03-16T16:28:00.452Z,9.91
2023-03-16T16:31:17.158Z,9.80
2023-03-16T16:34:27.314Z,9.64
2023-03-16T16:37:33.449Z,9.52
2023-03-16T16:40:46.303Z,9.42
2023-03-16T16:43:56.544Z,9.27
2023-03-16T16:47:03.649Z,9.12
2023-03-16T16:50:18.757Z,9.00
2023-03-16T16:53:25.691Z,8.81
2023-03-16T16:56:39.027Z,8.59
2023-03-16T16:59:47.203Z,8.39
2023-03-16T17:02:58.903Z,8.29
2023-03-16T17:06:05.514Z,8.15
2023-03-16T17:09:12.508Z,8.05
2023-03-16T17:12:26.324Z,7.85
2023-03-16T17:15:35.224Z,7.76
2023-03-16T17:18:42.349Z,7.70
2023-03-16T17:21:49.243Z,7.56
2023-03-16T17:24:56.434Z,7.32
2023-03-16T17:28:05.812Z,7.22
2023-03-16T17:31:15.703Z,7.07
2023-03-16T17:34:26.058Z,7.02
2023-03-16T17:37:32.704Z,6.62
2023-03-16T17:40:38.805Z,6.39
2023-03-16T17:43:51.497Z,6.40
2023-03-16T17:46:57.754Z,6.35
2023-03-16T17:50:04.549Z,6.24
2023-03-16T17:53:10.334Z,6.02
2023-03-16T17:56:27.223Z,5.89
2023-03-16T17:59:36.677Z,5.79
2023-03-16T18:02:56.769Z,5.71
2023-03-16T18:06:02.729Z,5.62
2023-03-16T18:09:09.856Z,5.62
2023-03-16T18:12:15.753Z,5.60
2023-03-16T18:15:31.286Z,5.48
2023-03-16T18:18:41.931Z,5.36
2023-03-16T18:21:48.578Z,5.30
2023-03-16T18:24:58.114Z,5.10
2023-03-16T18:28:05.394Z,5.04
2023-03-16T18:31:24.340Z,4.99
2023-03-16T18:34:37.793Z,4.89
2023-03-16T18:37:44.914Z,4.96
2023-03-16T18:40:51.617Z,4.92
2023-03-16T18:44:01.156Z,4.76
2023-03-16T18:47:22.167Z,4.79
2023-03-16T18:50:32.008Z,4.78
2023-03-16T18:53:38.998Z,4.78
2023-03-16T18:56:44.753Z,4.72
2023-03-16T18:59:52.412Z,4.58
2023-03-16T19:03:09.350Z,4.42
2023-03-16T19:06:21.494Z,4.38
2023-03-16T19:09:32.223Z,4.30
2023-03-16T19:12:39.242Z,4.32
2023-03-16T19:15:45.252Z,4.32
2023-03-16T19:18:54.608Z,4.20
2023-03-16T19:22:13.102Z,4.26
2023-03-16T19:25:48.612Z,4.07
2023-03-16T19:28:56.477Z,3.93
2023-03-16T19:32:04.165Z,3.89
2023-03-16T19:35:21.098Z,4.02
2023-03-16T19:38:31.873Z,4.06
2023-03-16T19:41:44.079Z,4.09
2023-03-16T19:44:53.928Z,4.15
2023-03-16T19:47:59.862Z,4.23
2023-03-16T19:51:09.394Z,4.32
2023-03-16T19:54:25.918Z,4.36
2023-03-16T19:57:34.081Z,4.25
2023-03-16T20:00:43.378Z,4.26
2023-03-16T20:03:54.793Z,4.27
2023-03-16T20:07:03.324Z,4.29
2023-03-16T20:10:11.911Z,4.31
2023-03-16T20:13:31.890Z,4.21
2023-03-16T20:16:39.556Z,4.17
2023-03-16T20:19:48.639Z,4.18
2023-03-16T20:23:02.503Z,4.26
2023-03-16T20:26:17.905Z,4.18
2023-03-16T20:29:32.894Z,4.05
2023-03-16T20:32:40.120Z,3.89
2023-03-16T20:35:47.529Z,3.77
2023-03-16T20:38:56.170Z,3.73
2023-03-16T20:42:16.768Z,3.48
2023-03-16T20:45:33.797Z,3.43
2023-03-16T20:48:43.384Z,3.34
2023-03-16T20:51:49.692Z,3.29
2023-03-16T20:54:58.915Z,3.39
2023-03-16T20:58:05.718Z,3.47
2023-03-16T21:01:18.899Z,3.36
2023-03-16T21:04:31.258Z,3.16
2023-03-16T21:07:37.949Z,2.98
2023-03-16T21:10:49.438Z,2.77
2023-03-16T21:13:57.571Z,2.67
2023-03-16T21:17:06.522Z,2.65
2023-03-16T21:20:20.744Z,2.55
2023-03-16T21:23:27.644Z,2.64
2023-03-16T21:26:37.967Z,2.59
2023-03-16T21:29:44.016Z,2.29
2023-03-16T21:32:50.771Z,2.24
2023-03-16T21:35:57.039Z,2.32
2023-03-16T21:39:04.113Z,2.45
2023-03-16T21:42:12.828Z,2.43
2023-03-16T21:45:20.418Z,2.56
2023-03-16T21:48:32.597Z,2.69
2023-03-16T21:51:40.259Z,2.80
2023-03-16T21:54:47.738Z,2.82
2023-03-16T21:58:02.950Z,2.74
2023-03-16T22:01:09.712Z,2.63
2023-03-16T22:04:20.778Z,2.58
2023-03-16T22:07:28.469Z,2.62
2023-03-16T22:10:35.513Z,2.59
2023-03-16T22:13:44.442Z,2.39
2023-03-16T22:16:52.154Z,2.22
2023-03-16T22:19:58.209Z,2.13
2023-03-16T22:23:07.899Z,2.02
2023-03-16T22:26:22.638Z,1.95
2023-03-16T22:29:33.954Z,1.83
2023-03-16T22:32:39.911Z,1.80
2023-03-16T22:35:47.475Z,1.77
2023-03-16T22:39:02.386Z,1.75
2023-03-16T22:42:31.206Z,1.74
2023-03-16T22:45:39.968Z,1.77
2023-03-16T22:48:46.627Z,1.75
2023-03-16T22:51:58.408Z,1.65
2023-03-16T22:55:10.129Z,1.60
2023-03-16T22:58:30.921Z,1.54
2023-03-16T23:01:45.049Z,1.48
2023-03-16T23:04:51.008Z,1.42
2023-03-16T23:07:58.367Z,1.26
2023-03-16T23:11:04.445Z,1.10
2023-03-16T23:14:17.621Z,1.09
2023-03-16T23:17:26.082Z,1.03
2023-03-16T23:20:35.276Z,1.12
2023-03-16T23:23:44.372Z,1.22
2023-03-16T23:26:54.123Z,1.29
2023-03-16T23:30:00.044Z,1.40
2023-03-16T23:33:09.364Z,1.46
2023-03-16T23:36:18.559Z,1.53
2023-03-16T23:39:25.861Z,1.61
2023-03-16T23:42:31.793Z,1.67
2023-03-16T23:45:44.625Z,1.63
2023-03-16T23:48:58.341Z,1.61
2023-03-16T23:52:05.548Z,1.57
2023-03-16T23:55:16.365Z,1.54
2023-03-16T23:58:23.064Z,1.54
